Kenner, LA

4:23 PM CDT on July 04, 2015 (GMT -0500)
Driftwood | | Change Station
CLOSE
Current Station
Personal Weather Station
Location: Kenner, LA
Elevation: 7 ft
Nearby Weather Stations

Elev 7 ft 30.03 °N, 90.23 °W | Updated 23 seconds ago

Mostly Cloudy
Mostly Cloudy
83.3 °F
Feels Like 90 °F
N
2.7
Wind Variable Wind from WNW
Gusts 4.9 mph

Today
High -- | Low -- °F
--% Chance of Precip.
Yesterday
High -- | Low -- °F
Precip. -- in
6:04 AM 8:06 PM
Waning Gibbous, 90% visible
Pressure 30.05 in
Visibility 10.0 miles
Clouds Few 3000 ft
Few 7500 ft
Mostly Cloudy 25000 ft
Heat Index 90 °F
Dew Point 74 °F
Humidity 73%
Rainfall 0.00 in
Snow Depth Not available.
UV 2.0 out of 12
Pollen 2.20 out of 12
Air Quality Not available.
Flu Activity Not available.
METAR KMSY 042053Z 29010KT 10SM FEW030 FEW075 BKN250 29/22 A3004 RMK AO2 SLP175 CB DSNT NE-N T02890222 55001 $

More Conditions Fewer Conditions

Pressure 30.05 in
Visibility 10.0 miles
Clouds Few 3000 ft
Few 7500 ft
Mostly Cloudy 25000 ft
Heat Index 90 °F
Dew Point 74 °F
Humidity 73%
Rainfall 0.00 in
Snow Depth Not available.
UV 2.0 out of 12
Pollen 2.20 out of 12
Air Quality Not available.
Flu Activity Not available.
METAR KMSY 042053Z 29010KT 10SM FEW030 FEW075 BKN250 29/22 A3004 RMK AO2 SLP175 CB DSNT NE-N T02890222 55001 $

More Conditions Fewer Conditions

10-Day Weather Forecast

×

Almanac

Astronomy

Jul. 04, 2015 Rise Set
Actual Time
Civil Twilight
Nautical Twilight
Astronomical Twilight
Moon
Length of Visible Light
Length of Day
Tomorrow will be .
, % of the Moon is Illuminated

Today's Extremes

State Highs State Lows

Community

WunderPhotos

Upload Photos

1,835,106 photos uploaded!

WunderBlogs® & News

Nearby

Air Quality

  Air Quality AQ Index Pollutant
Not available.

Snow Depth

Station Depth Elevation

Earthquake Activity

City Distance Mag. Time & Date
Minimum magnitude displayed is 2.5.

Coastal Water Temperatures

Place Temperature

Stations

Nearby Weather Stations

Station Location Temp. Windchill Dew Point Humidity Wind Precip. Elev Updated Type